createdAt,value
2024-03-16T00:05:20.161Z,100332.00
2024-03-16T00:15:23.418Z,100339.50
2024-03-16T00:25:27.476Z,100338.66
2024-03-16T00:35:31.161Z,100338.72
2024-03-16T00:45:34.356Z,100342.13
2024-03-16T00:55:39.102Z,100338.50
2024-03-16T01:05:42.242Z,100353.78
2024-03-16T01:15:45.816Z,100343.47
2024-03-16T01:25:49.139Z,100347.75
2024-03-16T01:35:53.041Z,100348.53
2024-03-16T01:45:56.198Z,100348.38
2024-03-16T01:55:59.332Z,100351.81
2024-03-16T02:06:02.394Z,100354.41
2024-03-16T02:16:06.060Z,100362.25
2024-03-16T02:26:09.625Z,100373.19
2024-03-16T02:36:12.922Z,100372.88
2024-03-16T02:46:16.211Z,100382.41
2024-03-16T02:56:20.280Z,100393.53
2024-03-16T03:06:23.908Z,100401.72
2024-03-16T03:16:27.091Z,100415.34
2024-03-16T03:26:31.692Z,100409.63
2024-03-16T03:36:35.306Z,100412.97
2024-03-16T03:46:51.317Z,100417.19
2024-03-16T03:56:54.865Z,100424.88
2024-03-16T04:06:58.095Z,100435.09
2024-03-16T04:17:01.212Z,100442.22
2024-03-16T04:27:04.622Z,100447.47
2024-03-16T04:37:08.044Z,100451.78
2024-03-16T04:47:11.283Z,100463.66
2024-03-16T04:57:14.592Z,100466.19
2024-03-16T05:07:18.073Z,100474.44
2024-03-16T05:17:21.179Z,100480.47
2024-03-16T05:27:24.224Z,100483.34
2024-03-16T05:37:31.404Z,100502.00
2024-03-16T05:47:35.112Z,100506.19
2024-03-16T05:57:38.264Z,100531.19
2024-03-16T06:07:43.954Z,100546.69
2024-03-16T06:17:47.501Z,100567.78
2024-03-16T06:27:51.604Z,100581.66
2024-03-16T06:37:54.659Z,100598.91
2024-03-16T06:47:58.724Z,100612.66
2024-03-16T06:58:01.836Z,100623.53
2024-03-16T07:08:05.635Z,100652.81
2024-03-16T07:18:10.059Z,100710.59
2024-03-16T07:28:15.068Z,100736.56
2024-03-16T07:38:18.792Z,100785.31
2024-03-16T07:48:22.898Z,100800.16
2024-03-16T07:58:25.915Z,100829.97
2024-03-16T08:08:29.189Z,100842.66
2024-03-16T08:18:32.272Z,100871.72
2024-03-16T08:28:35.664Z,100891.94
2024-03-16T08:38:38.725Z,100915.03
2024-03-16T08:48:41.936Z,100935.53
2024-03-16T08:58:47.484Z,100953.44
2024-03-16T09:08:51.972Z,100977.31
2024-03-16T09:18:55.447Z,100993.72
2024-03-16T09:28:58.633Z,100999.31
2024-03-16T09:39:01.784Z,101023.47
